createdAt,value
2022-10-13T06:15:17.344Z,1011.21
2022-10-13T06:25:17.122Z,1011.34
2022-10-13T06:35:17.208Z,1011.25
2022-10-13T06:45:17.235Z,1011.26
2022-10-13T06:55:17.043Z,1011.33
2022-10-13T07:05:17.254Z,1011.31
2022-10-13T07:15:17.315Z,1011.32
2022-10-13T07:25:17.456Z,1011.36
2022-10-13T07:35:17.333Z,1011.48
2022-10-13T07:45:17.295Z,1011.34
2022-10-13T07:55:17.377Z,1011.36
2022-10-13T08:05:17.157Z,1011.33
2022-10-13T08:15:17.405Z,1011.35
2022-10-13T08:25:17.344Z,1011.29
2022-10-13T08:35:17.432Z,1011.07
2022-10-13T08:45:41.679Z,1011.09
2022-10-13T08:55:17.424Z,1010.96
2022-10-13T09:05:17.623Z,1011.02
2022-10-13T09:15:17.691Z,1011.08
2022-10-13T09:25:17.614Z,1010.87
2022-10-13T09:35:17.484Z,1010.97
2022-10-13T09:45:17.563Z,1011.14
2022-10-13T09:55:17.386Z,1010.99
2022-10-13T10:05:17.394Z,1011.01
2022-10-13T10:15:17.577Z,1010.87
2022-10-13T10:25:17.654Z,1010.68
2022-10-13T10:35:17.494Z,1010.62
2022-10-13T10:45:17.704Z,1010.61
2022-10-13T10:55:17.786Z,1010.50
2022-10-13T11:05:17.746Z,1010.41
2022-10-13T11:15:17.762Z,1010.29
2022-10-13T11:25:17.833Z,1010.18
2022-10-13T11:35:17.709Z,1009.88
2022-10-13T11:45:17.716Z,1009.81
2022-10-13T11:55:17.892Z,1009.65
2022-10-13T12:05:18.084Z,1009.63
2022-10-13T12:15:17.797Z,1009.40
2022-10-13T12:25:17.759Z,1009.36
2022-10-13T12:35:17.936Z,1009.49
2022-10-13T12:45:17.997Z,1009.39
2022-10-13T12:55:18.251Z,1009.38
2022-10-13T13:05:18.143Z,1009.34
2022-10-13T13:15:18.112Z,1009.30
2022-10-13T13:25:18.137Z,1009.13
2022-10-13T13:35:18.064Z,1009.09
2022-10-13T13:45:18.200Z,1009.03
2022-10-13T13:55:18.147Z,1009.11
2022-10-13T14:05:18.223Z,1009.11
2022-10-13T14:15:18.292Z,1009.06
2022-10-13T14:25:18.091Z,1009.07
2022-10-13T14:35:18.186Z,1008.99
2022-10-13T14:45:18.212Z,1009.04
2022-10-13T14:55:18.110Z,1008.85
2022-10-13T15:05:18.273Z,1008.83
2022-10-13T15:15:18.444Z,1008.87
2022-10-13T15:25:18.425Z,1008.89
2022-10-13T15:35:18.534Z,1008.80
2022-10-13T15:45:18.463Z,1008.77
2022-10-13T15:55:18.423Z,1008.81
2022-10-13T16:05:18.441Z,1008.76
2022-10-13T16:15:18.479Z,1008.80
2022-10-13T16:25:18.524Z,1008.76
2022-10-13T16:35:18.492Z,1008.77
2022-10-13T16:45:19.760Z,1008.84
2022-10-13T16:55:18.565Z,1008.87
2022-10-13T17:05:18.433Z,1008.86
2022-10-13T17:15:18.447Z,1008.84
2022-10-13T17:25:18.523Z,1008.89
2022-10-13T17:35:18.430Z,1008.95
2022-10-13T17:45:18.534Z,1008.97
2022-10-13T17:55:18.470Z,1009.01
2022-10-13T18:05:18.472Z,1008.92
2022-10-13T18:15:18.519Z,1008.86
2022-10-13T18:25:18.479Z,1008.95
2022-10-13T18:35:18.707Z,1008.94
2022-10-13T18:45:18.743Z,1008.94
2022-10-13T18:55:18.822Z,1008.91
2022-10-13T19:05:19.036Z,1008.93
2022-10-13T19:15:19.203Z,1009.01
